Time;durP1;ratioP1;P1;durP2;ratioP2;P2;SDS_P1;SDS_P2;PMS_P1;PMS_P2;Temp;Humidity;BMP_temperature;BMP_pressure;BME280_temperature;BME280_humidity;BME280_pressure;Samples;Min_cycle;Max_cycle;Signal;HPM_P1;HPM_P2
2023/03/16 00:00:30;;;;;;;28.80;19.02;;;;;;;;;;6066770;23;20022;-79
2023/03/16 00:03:04;;;;;;;29.88;19.63;;;;;;;;;;6091057;23;20023;-80
2023/03/16 00:05:31;;;;;;;29.70;18.88;;;;;;;;;;6091531;23;20026;-80
2023/03/16 00:07:59;;;;;;;29.00;19.52;;;;;;;;;;6066489;23;20018;-80
2023/03/16 00:10:32;;;;;;;29.15;18.65;;;;;;;;;;6066151;23;20133;-81
2023/03/16 00:13:02;;;;;;;23.80;17.13;;;;;;;;;;6042788;23;20042;-81
2023/03/16 00:15:35;;;;;;;31.95;19.65;;;;;;;;;;6090977;23;20038;-81
2023/03/16 00:18:03;;;;;;;28.40;19.33;;;;;;;;;;6065946;23;20026;-83
2023/03/16 00:20:30;;;;;;;33.28;20.13;;;;;;;;;;6066469;23;20022;-81
2023/03/16 00:22:57;;;;;;;35.47;20.63;;;;;;;;;;6066603;23;20022;-82
2023/03/16 00:25:27;;;;;;;28.95;18.42;;;;;;;;;;6044246;23;20099;-81
2023/03/16 00:28:03;;;;;;;28.40;18.42;;;;;;;;;;6066360;23;20023;-82
2023/03/16 00:30:35;;;;;;;29.13;18.52;;;;;;;;;;6066641;23;20369;-81
2023/03/16 00:33:05;;;;;;;27.45;18.13;;;;;;;;;;6043463;23;20031;-81
2023/03/16 00:35:33;;;;;;;29.60;18.83;;;;;;;;;;6068206;23;20031;-82
2023/03/16 00:38:03;;;;;;;26.33;18.67;;;;;;;;;;6045544;23;20023;-81
2023/03/16 00:40:32;;;;;;;27.75;18.98;;;;;;;;;;6064094;23;20058;-79
2023/03/16 00:43:00;;;;;;;32.28;19.52;;;;;;;;;;6039929;23;20046;-80
2023/03/16 00:45:27;;;;;;;34.80;20.70;;;;;;;;;;6040258;23;20118;-80
2023/03/16 00:47:56;;;;;;;32.83;20.67;;;;;;;;;;6087492;23;20019;-80
2023/03/16 00:50:32;;;;;;;36.10;21.17;;;;;;;;;;6063698;23;20027;-80
2023/03/16 00:53:02;;;;;;;33.90;21.65;;;;;;;;;;6063876;23;20078;-81
2023/03/16 00:55:29;;;;;;;33.67;20.95;;;;;;;;;;6063943;23;20465;-81
2023/03/16 00:58:06;;;;;;;31.80;20.75;;;;;;;;;;6065683;23;20031;-81
2023/03/16 01:00:35;;;;;;;35.45;20.33;;;;;;;;;;6064916;23;20026;-81
2023/03/16 01:03:05;;;;;;;32.72;20.15;;;;;;;;;;6065509;23;20034;-82
2023/03/16 01:05:40;;;;;;;34.65;20.08;;;;;;;;;;6066203;23;20034;-82
2023/03/16 01:08:11;;;;;;;28.27;18.85;;;;;;;;;;6065658;23;20121;-80
2023/03/16 01:10:39;;;;;;;36.20;20.00;;;;;;;;;;6065855;23;20030;-81
2023/03/16 01:13:09;;;;;;;31.30;20.67;;;;;;;;;;6067144;23;20019;-81
2023/03/16 01:15:37;;;;;;;30.08;19.63;;;;;;;;;;6041195;23;20027;-80
2023/03/16 01:18:07;;;;;;;31.65;18.85;;;;;;;;;;6065917;23;20023;-79
2023/03/16 01:20:38;;;;;;;34.63;20.52;;;;;;;;;;6070243;23;20070;-80
2023/03/16 01:23:07;;;;;;;28.95;18.63;;;;;;;;;;6066818;23;20398;-80
2023/03/16 01:25:37;;;;;;;29.15;17.90;;;;;;;;;;6041375;23;20027;-81
2023/03/16 01:28:05;;;;;;;27.63;19.00;;;;;;;;;;6066023;23;20033;-81
2023/03/16 01:30:39;;;;;;;32.72;20.88;;;;;;;;;;6042819;23;20034;-81
2023/03/16 01:33:06;;;;;;;25.95;18.83;;;;;;;;;;6066493;23;20029;-81
2023/03/16 01:35:37;;;;;;;34.78;19.60;;;;;;;;;;6066350;23;20091;-80
2023/03/16 01:38:04;;;;;;;35.63;19.98;;;;;;;;;;6065953;23;20050;-80
2023/03/16 01:40:35;;;;;;;68.75;21.80;;;;;;;;;;6066064;23;20026;-80
2023/03/16 01:43:06;;;;;;;40.97;20.02;;;;;;;;;;6041968;23;20023;-80
2023/03/16 01:45:59;;;;;;;78.55;21.92;;;;;;;;;;6041635;23;20050;-80
2023/03/16 01:48:36;;;;;;;46.30;19.52;;;;;;;;;;6092824;23;20022;-81
2023/03/16 01:51:20;;;;;;;38.63;20.23;;;;;;;;;;6042103;23;20101;-80
2023/03/16 01:53:54;;;;;;;45.58;19.27;;;;;;;;;;6065043;23;20027;-81
2023/03/16 01:56:25;;;;;;;70.60;19.27;;;;;;;;;;6043642;23;20102;-80
2023/03/16 01:58:57;;;;;;;72.20;20.65;;;;;;;;;;6065375;23;20029;-80
2023/03/16 02:01:28;;;;;;;86.22;21.73;;;;;;;;;;6042124;23;20058;-81
2023/03/16 02:04:00;;;;;;;67.97;21.83;;;;;;;;;;6066322;23;20023;-81
2023/03/16 02:06:32;;;;;;;51.22;22.20;;;;;;;;;;6066172;23;20030;-81
2023/03/16 02:09:02;;;;;;;57.63;21.38;;;;;;;;;;6066949;23;20022;-82
2023/03/16 02:11:30;;;;;;;61.38;19.40;;;;;;;;;;6066050;23;20022;-82
2023/03/16 02:14:02;;;;;;;64.95;23.35;;;;;;;;;;6066793;23;20110;-83
2023/03/16 02:16:29;;;;;;;57.55;23.35;;;;;;;;;;6065389;23;20362;-82
2023/03/16 02:18:57;;;;;;;57.67;23.98;;;;;;;;;;6065402;23;20402;-81
2023/03/16 02:21:53;;;;;;;52.92;22.42;;;;;;;;;;6066054;23;20050;-82
2023/03/16 02:24:29;;;;;;;48.65;24.25;;;;;;;;;;6064994;23;20064;-81
2023/03/16 02:27:09;;;;;;;40.00;22.05;;;;;;;;;;6042839;23;20023;-82
2023/03/16 02:30:00;;;;;;;39.92;21.55;;;;;;;;;;6042496;23;20026;-81
2023/03/16 02:32:33;;;;;;;41.70;21.48;;;;;;;;;;6065234;23;20102;-81
2023/03/16 02:35:03;;;;;;;39.28;21.45;;;;;;;;;;6041917;23;20023;-81
2023/03/16 02:37:38;;;;;;;42.40;21.77;;;;;;;;;;6041897;23;20065;-82
2023/03/16 02:40:25;;;;;;;;;;;;;;;;;;6065128;23;20023;-82
2023/03/16 02:43:24;;;;;;;42.83;22.80;;;;;;;;;;6020262;23;19929;-82
2023/03/16 02:45:56;;;;;;;43.58;22.65;;;;;;;;;;6065745;23;20027;-81
2023/03/16 02:48:28;;;;;;;48.58;24.25;;;;;;;;;;6066367;23;20418;-80
2023/03/16 02:50:55;;;;;;;42.05;22.52;;;;;;;;;;6090072;23;20027;-81
2023/03/16 02:53:27;;;;;;;44.15;23.05;;;;;;;;;;6042413;23;20058;-80
2023/03/16 02:55:55;;;;;;;42.10;22.85;;;;;;;;;;6064815;23;20027;-82
2023/03/16 02:58:25;;;;;;;40.03;21.17;;;;;;;;;;6066428;23;20357;-81
2023/03/16 03:00:52;;;;;;;42.45;20.45;;;;;;;;;;6066025;23;20739;-80
2023/03/16 03:03:22;;;;;;;40.88;21.48;;;;;;;;;;6068577;23;20015;-80
2023/03/16 03:05:50;;;;;;;39.83;22.23;;;;;;;;;;6043452;23;20018;-80
2023/03/16 03:08:27;;;;;;;36.50;20.73;;;;;;;;;;6068232;23;20362;-80
2023/03/16 03:10:54;;;;;;;34.42;20.65;;;;;;;;;;6066288;23;20033;-81
2023/03/16 03:13:25;;;;;;;34.72;19.48;;;;;;;;;;6044788;23;20023;-81
2023/03/16 03:15:54;;;;;;;31.80;19.00;;;;;;;;;;6048409;23;20033;-80
2023/03/16 03:18:25;;;;;;;34.70;19.05;;;;;;;;;;6073437;23;20029;-80
2023/03/16 03:20:54;;;;;;;38.65;20.40;;;;;;;;;;6087221;23;20019;-82
2023/03/16 03:23:31;;;;;;;35.03;19.02;;;;;;;;;;6089852;23;20050;-79
2023/03/16 03:26:04;;;;;;;32.80;19.63;;;;;;;;;;6076279;23;20023;-80
2023/03/16 03:28:33;;;;;;;35.78;19.80;;;;;;;;;;6079772;23;20037;-81
2023/03/16 03:31:01;;;;;;;37.25;20.75;;;;;;;;;;6085964;23;20007;-81
2023/03/16 03:33:32;;;;;;;34.17;19.48;;;;;;;;;;6088882;23;20047;-81
2023/03/16 03:36:00;;;;;;;37.10;20.02;;;;;;;;;;6087145;23;20027;-80
2023/03/16 03:38:29;;;;;;;36.63;20.48;;;;;;;;;;6075663;23;20062;-80
2023/03/16 03:40:59;;;;;;;37.22;20.30;;;;;;;;;;6075952;23;20019;-81
2023/03/16 03:43:26;;;;;;;35.53;19.88;;;;;;;;;;6079123;23;20050;-80
2023/03/16 03:45:57;;;;;;;36.53;20.77;;;;;;;;;;6067307;23;20107;-80
2023/03/16 03:48:25;;;;;;;33.58;19.55;;;;;;;;;;6039783;23;20030;-81
2023/03/16 03:50:53;;;;;;;35.90;19.42;;;;;;;;;;6063168;23;20035;-80
2023/03/16 03:53:27;;;;;;;40.92;20.70;;;;;;;;;;6063512;23;20023;-80
2023/03/16 03:56:05;;;;;;;36.10;20.63;;;;;;;;;;6063147;23;20101;-82
2023/03/16 03:58:36;;;;;;;37.70;20.60;;;;;;;;;;6063456;23;20026;-80
2023/03/16 04:01:07;;;;;;;33.72;18.33;;;;;;;;;;6062563;23;20025;-79
2023/03/16 04:03:40;;;;;;;38.67;20.48;;;;;;;;;;6063289;23;20026;-79
2023/03/16 04:06:17;;;;;;;34.38;20.85;;;;;;;;;;6064182;23;20019;-80
2023/03/16 04:08:50;;;;;;;33.67;19.98;;;;;;;;;;6039987;23;20399;-79
2023/03/16 04:11:20;;;;;;;;;;;;;;;;;;6086782;23;20097;-80
2023/03/16 04:13:56;;;;;;;33.58;19.45;;;;;;;;;;6017114;23;19928;-80
2023/03/16 04:16:27;;;;;;;37.92;19.30;;;;;;;;;;6063338;23;20125;-80
2023/03/16 04:18:58;;;;;;;39.33;20.33;;;;;;;;;;6063617;23;20062;-80
2023/03/16 04:21:26;;;;;;;36.92;20.35;;;;;;;;;;6039156;23;20025;-80
2023/03/16 04:23:57;;;;;;;35.47;21.08;;;;;;;;;;6040103;23;20033;-81
2023/03/16 04:26:27;;;;;;;36.67;19.35;;;;;;;;;;6063627;23;20058;-80
2023/03/16 04:29:02;;;;;;;34.73;19.43;;;;;;;;;;6063386;23;20026;-79
2023/03/16 04:31:39;;;;;;;34.90;19.55;;;;;;;;;;6063211;23;20738;-80
2023/03/16 04:34:07;;;;;;;34.58;19.17;;;;;;;;;;6062870;23;20078;-79
2023/03/16 04:36:40;;;;;;;35.78;20.88;;;;;;;;;;6064143;23;20101;-79
2023/03/16 04:39:11;;;;;;;35.90;20.20;;;;;;;;;;6063623;23;20027;-80
2023/03/16 04:41:44;;;;;;;32.50;19.65;;;;;;;;;;6063194;23;20058;-79
2023/03/16 04:44:26;;;;;;;34.80;19.80;;;;;;;;;;6064292;23;20022;-79
2023/03/16 04:46:53;;;;;;;28.63;15.65;;;;;;;;;;6064972;23;20477;-81
2023/03/16 04:49:25;;;;;;;33.72;19.90;;;;;;;;;;6065977;23;20026;-81
2023/03/16 04:51:53;;;;;;;37.75;20.92;;;;;;;;;;6041203;23;20031;-81
2023/03/16 04:54:24;;;;;;;37.90;21.75;;;;;;;;;;6064829;23;20022;-80
2023/03/16 04:56:54;;;;;;;36.20;20.17;;;;;;;;;;6064920;23;20027;-80
2023/03/16 04:59:22;;;;;;;35.40;20.23;;;;;;;;;;6041390;23;20037;-81
2023/03/16 05:01:50;;;;;;;35.08;19.70;;;;;;;;;;6063318;23;20023;-79
2023/03/16 05:04:23;;;;;;;36.35;20.05;;;;;;;;;;6040825;23;20022;-79
2023/03/16 05:06:51;;;;;;;32.90;19.65;;;;;;;;;;6063689;23;20030;-79
2023/03/16 05:09:21;;;;;;;32.70;18.75;;;;;;;;;;6064538;23;20078;-79
2023/03/16 05:11:54;;;;;;;32.17;19.55;;;;;;;;;;6063701;23;20374;-79
2023/03/16 05:14:28;;;;;;;35.47;18.20;;;;;;;;;;6064030;23;20018;-79
2023/03/16 05:16:56;;;;;;;33.30;18.27;;;;;;;;;;6039398;23;20402;-79
2023/03/16 05:19:24;;;;;;;32.85;20.00;;;;;;;;;;6087202;23;20027;-81
2023/03/16 05:21:54;;;;;;;30.83;19.13;;;;;;;;;;6064802;23;20098;-81
2023/03/16 05:24:22;;;;;;;35.00;18.77;;;;;;;;;;6064122;23;20037;-75
2023/03/16 05:26:59;;;;;;;31.27;19.27;;;;;;;;;;6086114;23;20027;-74
2023/03/16 05:29:31;;;;;;;33.20;19.25;;;;;;;;;;6063081;23;20030;-81
2023/03/16 05:32:07;;;;;;;37.03;20.48;;;;;;;;;;6064485;23;20042;-81
2023/03/16 05:34:42;;;;;;;35.22;19.60;;;;;;;;;;6041567;23;20027;-82
2023/03/16 05:37:14;;;;;;;32.25;18.85;;;;;;;;;;6064979;23;20023;-82
2023/03/16 05:39:47;;;;;;;36.72;20.42;;;;;;;;;;6065948;23;20031;-82
2023/03/16 05:42:14;;;;;;;35.75;20.77;;;;;;;;;;6064469;23;20470;-82
2023/03/16 05:44:43;;;;;;;37.03;20.67;;;;;;;;;;6065857;23;20455;-81
2023/03/16 05:47:14;;;;;;;32.67;19.20;;;;;;;;;;6045485;23;20031;-82
2023/03/16 05:49:42;;;;;;;36.45;20.33;;;;;;;;;;6044870;23;20031;-82
2023/03/16 05:52:10;;;;;;;35.72;19.48;;;;;;;;;;6066776;23;20462;-82
2023/03/16 05:54:38;;;;;;;35.42;19.60;;;;;;;;;;6065912;23;20027;-81
2023/03/16 05:57:18;;;;;;;33.08;18.67;;;;;;;;;;6043401;23;20479;-81
2023/03/16 05:59:47;;;;;;;34.55;19.35;;;;;;;;;;6064671;23;20027;-81
2023/03/16 06:02:23;;;;;;;34.65;18.80;;;;;;;;;;6089854;23;20405;-81
2023/03/16 06:04:55;;;;;;;30.45;17.95;;;;;;;;;;6043012;23;20023;-81
2023/03/16 06:07:30;;;;;;;31.25;18.23;;;;;;;;;;6066816;23;20109;-81
2023/03/16 06:10:07;;;;;;;30.60;18.77;;;;;;;;;;6065266;23;20022;-81
2023/03/16 06:12:46;;;;;;;32.92;18.50;;;;;;;;;;6065020;23;20033;-80
2023/03/16 06:15:16;;;;;;;30.80;17.17;;;;;;;;;;6043956;23;20015;-81
2023/03/16 06:17:47;;;;;;;32.85;18.48;;;;;;;;;;6065938;23;20030;-81
2023/03/16 06:20:18;;;;;;;28.98;17.27;;;;;;;;;;6064828;23;20030;-80
2023/03/16 06:22:50;;;;;;;25.80;16.65;;;;;;;;;;6065789;23;20030;-80
2023/03/16 06:25:18;;;;;;;29.27;18.05;;;;;;;;;;6065462;23;20089;-80
2023/03/16 06:27:47;;;;;;;29.38;16.48;;;;;;;;;;6069007;23;20023;-80
2023/03/16 06:30:20;;;;;;;31.02;17.40;;;;;;;;;;6066646;23;20034;-80
2023/03/16 06:32:48;;;;;;;27.88;17.73;;;;;;;;;;6042831;23;20029;-81
2023/03/16 06:35:17;;;;;;;29.38;18.35;;;;;;;;;;6065382;23;20086;-79
2023/03/16 06:37:47;;;;;;;31.25;18.77;;;;;;;;;;6067696;23;20027;-79
2023/03/16 06:40:18;;;;;;;28.88;18.25;;;;;;;;;;6065819;23;20027;-79
2023/03/16 06:42:50;;;;;;;29.50;17.95;;;;;;;;;;6072406;23;20113;-88
2023/03/16 06:45:20;;;;;;;27.58;16.95;;;;;;;;;;6073130;23;20094;-80
2023/03/16 06:47:56;;;;;;;24.70;16.95;;;;;;;;;;6074339;23;20074;-79
2023/03/16 06:50:24;;;;;;;;;;;;;;;;;;6074414;23;20074;-79
2023/03/16 06:53:02;;;;;;;28.67;17.17;;;;;;;;;;6047702;23;19924;-81
2023/03/16 06:55:32;;;;;;;28.92;17.60;;;;;;;;;;6067292;23;20046;-80
2023/03/16 06:58:00;;;;;;;26.52;15.98;;;;;;;;;;6068875;23;20042;-82
2023/03/16 07:00:32;;;;;;;28.63;17.33;;;;;;;;;;6093019;23;20047;-80
2023/03/16 07:03:04;;;;;;;29.50;17.15;;;;;;;;;;6065686;23;20098;-81
2023/03/16 07:05:32;;;;;;;26.10;16.98;;;;;;;;;;6074502;23;20019;-82
2023/03/16 07:08:03;;;;;;;28.42;16.13;;;;;;;;;;6073886;23;20297;-85
2023/03/16 07:10:35;;;;;;;25.33;15.85;;;;;;;;;;6065547;23;20118;-81
2023/03/16 07:13:03;;;;;;;21.48;15.02;;;;;;;;;;6043688;23;20023;-81
2023/03/16 07:15:31;;;;;;;24.58;14.80;;;;;;;;;;6066672;23;20350;-82
2023/03/16 07:18:01;;;;;;;22.90;14.95;;;;;;;;;;6066494;23;20031;-81
2023/03/16 07:20:38;;;;;;;24.45;15.68;;;;;;;;;;6047102;23;20030;-83
2023/03/16 07:23:06;;;;;;;28.60;16.27;;;;;;;;;;6059454;23;20034;-83
2023/03/16 07:25:33;;;;;;;26.92;16.25;;;;;;;;;;6077871;23;20031;-82
2023/03/16 07:28:06;;;;;;;22.40;14.90;;;;;;;;;;6065274;23;20097;-82
2023/03/16 07:30:37;;;;;;;20.77;14.38;;;;;;;;;;6065516;23;20027;-82
2023/03/16 07:33:31;;;;;;;22.02;14.23;;;;;;;;;;6069109;23;20027;-82
2023/03/16 07:36:04;;;;;;;23.75;15.15;;;;;;;;;;6043609;23;20022;-82
2023/03/16 07:38:32;;;;;;;24.20;15.13;;;;;;;;;;6065616;23;20030;-79
2023/03/16 07:41:03;;;;;;;23.02;14.20;;;;;;;;;;6040612;23;20041;-80
2023/03/16 07:43:36;;;;;;;20.02;14.30;;;;;;;;;;6043462;23;20454;-80
2023/03/16 07:46:05;;;;;;;23.35;14.77;;;;;;;;;;6067043;23;20345;-79
2023/03/16 07:48:42;;;;;;;20.05;13.75;;;;;;;;;;6068841;23;20422;-81
2023/03/16 07:51:14;;;;;;;23.05;14.05;;;;;;;;;;6070704;23;20402;-80
2023/03/16 07:53:44;;;;;;;18.00;12.35;;;;;;;;;;6047163;23;20027;-79
2023/03/16 07:56:20;;;;;;;19.20;14.15;;;;;;;;;;6071934;23;20038;-85
2023/03/16 07:58:50;;;;;;;19.10;13.88;;;;;;;;;;6052938;23;20521;-82
2023/03/16 08:01:28;;;;;;;16.25;11.77;;;;;;;;;;6075338;23;20394;-81
2023/03/16 08:04:01;;;;;;;18.08;13.20;;;;;;;;;;6086392;23;20586;-74
2023/03/16 08:06:29;;;;;;;17.15;12.68;;;;;;;;;;6063096;23;20022;-74
2023/03/16 08:08:58;;;;;;;19.63;13.60;;;;;;;;;;6065038;23;20105;-78
2023/03/16 08:11:26;;;;;;;16.63;12.18;;;;;;;;;;6040016;23;20496;-77
2023/03/16 08:13:55;;;;;;;19.05;12.18;;;;;;;;;;6064150;23;20035;-77
2023/03/16 08:16:30;;;;;;;16.53;11.63;;;;;;;;;;6065243;23;20023;-76
2023/03/16 08:19:02;;;;;;;15.57;12.00;;;;;;;;;;6048282;23;20267;-79
2023/03/16 08:21:33;;;;;;;15.25;11.45;;;;;;;;;;6040334;23;20026;-71
2023/03/16 08:24:17;;;;;;;16.95;11.43;;;;;;;;;;6067366;23;20106;-80
2023/03/16 08:26:46;;;;;;;18.77;12.53;;;;;;;;;;6065751;23;20027;-79
2023/03/16 08:29:14;;;;;;;13.02;10.40;;;;;;;;;;6064591;23;20322;-82
2023/03/16 08:31:56;;;;;;;17.35;10.85;;;;;;;;;;6068001;23;20030;-81
2023/03/16 08:34:25;;;;;;;17.15;11.57;;;;;;;;;;6067296;23;20070;-82
2023/03/16 08:36:59;;;;;;;11.88;9.27;;;;;;;;;;6067613;23;20023;-77
2023/03/16 08:39:31;;;;;;;15.23;10.95;;;;;;;;;;6064610;23;20401;-84
2023/03/16 08:42:03;;;;;;;16.38;10.95;;;;;;;;;;6068569;23;20022;-83
2023/03/16 08:44:35;;;;;;;13.98;11.02;;;;;;;;;;6065870;23;20033;-79
2023/03/16 08:47:06;;;;;;;14.07;9.95;;;;;;;;;;6064626;23;20106;-73
2023/03/16 08:49:46;;;;;;;12.57;9.20;;;;;;;;;;6087351;23;20551;-78
2023/03/16 08:52:15;;;;;;;14.30;9.88;;;;;;;;;;6062993;23;20029;-79
2023/03/16 08:54:47;;;;;;;15.38;10.10;;;;;;;;;;6063104;23;20062;-79
2023/03/16 08:57:29;;;;;;;15.27;9.15;;;;;;;;;;6063003;23;20079;-79
2023/03/16 09:00:12;;;;;;;13.40;8.80;;;;;;;;;;6063792;23;20054;-76
2023/03/16 09:02:44;;;;;;;12.02;8.48;;;;;;;;;;6090102;23;20535;-78
2023/03/16 09:05:19;;;;;;;13.23;8.40;;;;;;;;;;6080167;23;20029;-82
2023/03/16 09:07:47;;;;;;;10.73;8.13;;;;;;;;;;6067557;23;20022;-76
2023/03/16 09:10:19;;;;;;;11.88;9.05;;;;;;;;;;6065872;23;20034;-83
2023/03/16 09:12:49;;;;;;;13.82;8.35;;;;;;;;;;6066114;23;20029;-78
2023/03/16 09:15:19;;;;;;;11.32;7.93;;;;;;;;;;6062709;23;20015;-76
2023/03/16 09:17:50;;;;;;;11.32;7.93;;;;;;;;;;6064831;23;20027;-81
2023/03/16 09:20:24;;;;;;;9.38;7.47;;;;;;;;;;6041515;23;20105;-81
2023/03/16 09:22:59;;;;;;;11.50;7.50;;;;;;;;;;6065858;23;20338;-82
2023/03/16 09:25:36;;;;;;;9.50;6.57;;;;;;;;;;6065003;23;20019;-80
2023/03/16 09:28:16;;;;;;;8.52;7.05;;;;;;;;;;6064812;23;20029;-80
2023/03/16 09:30:48;;;;;;;12.05;7.72;;;;;;;;;;6040980;23;20361;-80
2023/03/16 09:33:24;;;;;;;9.15;6.97;;;;;;;;;;6065256;23;20110;-81
2023/03/16 09:35:56;;;;;;;10.02;6.18;;;;;;;;;;6063876;23;20023;-81
2023/03/16 09:38:33;;;;;;;12.38;7.72;;;;;;;;;;6059608;23;20473;-81
2023/03/16 09:41:06;;;;;;;10.00;6.90;;;;;;;;;;6040590;23;20026;-80
2023/03/16 09:43:50;;;;;;;;;;;;;;;;;;6064790;23;20027;-81
2023/03/16 09:46:33;;;;;;;7.85;5.22;;;;;;;;;;6042162;23;19956;-81
2023/03/16 09:49:17;;;;;;;10.02;5.70;;;;;;;;;;6063219;23;20027;-81
2023/03/16 09:52:00;;;;;;;7.22;5.18;;;;;;;;;;6063945;23;20023;-80
2023/03/16 09:54:42;;;;;;;9.07;5.65;;;;;;;;;;6088108;23;20034;-80
2023/03/16 09:57:39;;;;;;;7.63;4.68;;;;;;;;;;6062549;23;20034;-80
2023/03/16 10:00:22;;;;;;;6.22;4.47;;;;;;;;;;6067421;23;20536;-80
2023/03/16 10:03:02;;;;;;;5.55;4.40;;;;;;;;;;6068452;23;20025;-81
2023/03/16 10:05:37;;;;;;;4.95;4.18;;;;;;;;;;6092614;23;20019;-83
2023/03/16 10:08:32;;;;;;;8.00;4.90;;;;;;;;;;6069004;23;20027;-82
2023/03/16 10:11:04;;;;;;;7.13;4.90;;;;;;;;;;6046141;23;20027;-82
2023/03/16 10:13:47;;;;;;;5.60;3.97;;;;;;;;;;6050897;23;20033;-83
2023/03/16 10:16:36;;;;;;;8.13;3.88;;;;;;;;;;6069252;23;20041;-83
2023/03/16 10:19:36;;;;;;;6.97;3.97;;;;;;;;;;6068691;23;20469;-83
2023/03/16 10:22:20;;;;;;;6.25;4.13;;;;;;;;;;6093103;23;20050;-83
2023/03/16 10:25:06;;;;;;;;;;;;;;;;;;6070337;23;20326;-82
2023/03/16 10:27:42;;;;;;;4.68;3.80;;;;;;;;;;6089794;23;19983;-83
2023/03/16 10:30:22;;;;;;;4.45;3.65;;;;;;;;;;6067895;23;20516;-82
2023/03/16 10:32:51;;;;;;;4.00;3.10;;;;;;;;;;6092520;23;20027;-82
2023/03/16 10:35:42;;;;;;;5.68;4.18;;;;;;;;;;6068507;23;20023;-82
2023/03/16 10:38:54;;;;;;;5.70;3.63;;;;;;;;;;6092316;23;20023;-82
2023/03/16 10:41:32;;;;;;;4.53;3.20;;;;;;;;;;6068817;23;20027;-82
2023/03/16 10:44:13;;;;;;;3.60;3.22;;;;;;;;;;6068624;23;20023;-82
2023/03/16 10:47:04;;;;;;;5.88;3.70;;;;;;;;;;6067870;23;20054;-83
2023/03/16 10:49:47;;;;;;;4.78;3.58;;;;;;;;;;6068545;23;20023;-82
2023/03/16 10:52:19;;;;;;;5.82;3.42;;;;;;;;;;6067337;23;20031;-84
2023/03/16 10:54:58;;;;;;;7.80;2.90;;;;;;;;;;6092023;23;20030;-82
2023/03/16 10:57:38;;;;;;;4.55;3.17;;;;;;;;;;6070103;23;20023;-81
2023/03/16 11:00:21;;;;;;;3.40;2.63;;;;;;;;;;6069639;23;20362;-81
2023/03/16 11:02:58;;;;;;;4.43;3.13;;;;;;;;;;6070150;23;20042;-81
2023/03/16 11:05:33;;;;;;;4.15;2.90;;;;;;;;;;6069920;23;20075;-80
2023/03/16 11:08:09;;;;;;;5.75;3.55;;;;;;;;;;6070353;23;20034;-81
2023/03/16 11:10:41;;;;;;;4.88;2.83;;;;;;;;;;6070960;23;20101;-81
2023/03/16 11:13:23;;;;;;;4.05;3.10;;;;;;;;;;6073009;23;20461;-83
2023/03/16 11:16:23;;;;;;;3.63;2.75;;;;;;;;;;6074752;23;20027;-84
2023/03/16 11:19:03;;;;;;;6.20;3.30;;;;;;;;;;6073671;23;20078;-85
2023/03/16 11:22:03;;;;;;;3.88;2.50;;;;;;;;;;6090774;23;20003;-88
2023/03/16 11:25:05;;;;;;;5.15;2.70;;;;;;;;;;6116336;23;20011;-82
2023/03/16 11:28:07;;;;;;;4.30;2.63;;;;;;;;;;6090862;23;20030;-85
2023/03/16 11:31:03;;;;;;;3.70;2.92;;;;;;;;;;6045952;23;20029;-84
2023/03/16 11:33:34;;;;;;;7.07;3.35;;;;;;;;;;6095985;23;20079;-84
2023/03/16 11:36:29;;;;;;;4.03;3.50;;;;;;;;;;6072019;23;20082;-83
2023/03/16 11:39:10;;;;;;;4.80;2.95;;;;;;;;;;6067476;23;20059;-85
2023/03/16 11:42:00;;;;;;;3.42;2.90;;;;;;;;;;6093901;23;20033;-84
2023/03/16 11:44:54;;;;;;;5.10;3.17;;;;;;;;;;6093482;23;20022;-85
2023/03/16 11:47:32;;;;;;;3.88;2.83;;;;;;;;;;6094646;23;20019;-84
2023/03/16 11:50:57;;;;;;;3.95;2.70;;;;;;;;;;6096209;23;20019;-85
2023/03/16 11:54:21;;;;;;;3.60;2.65;;;;;;;;;;6038938;23;20027;-84
2023/03/16 11:57:29;;;;;;;3.53;2.90;;;;;;;;;;6030442;23;20095;-84
2023/03/16 12:00:19;;;;;;;3.45;2.70;;;;;;;;;;6045778;23;20446;-76
2023/03/16 12:03:12;;;;;;;3.92;2.33;;;;;;;;;;6039655;23;20038;-74
2023/03/16 12:06:21;;;;;;;5.05;2.70;;;;;;;;;;6083494;23;20061;-75
2023/03/16 12:09:09;;;;;;;5.78;2.60;;;;;;;;;;6040041;23;20023;-76
2023/03/16 12:11:50;;;;;;;4.25;2.60;;;;;;;;;;6086237;23;20532;-75
2023/03/16 12:14:32;;;;;;;4.25;2.55;;;;;;;;;;6086061;23;20444;-76
2023/03/16 12:17:24;;;;;;;5.90;2.40;;;;;;;;;;6067871;23;20051;-82
2023/03/16 12:20:17;;;;;;;3.15;2.22;;;;;;;;;;6068716;23;20033;-82
2023/03/16 12:22:45;;;;;;;;;;;;;;;;;;6067519;23;20516;-82
2023/03/16 12:25:25;;;;;;;5.30;2.13;;;;;;;;;;6022585;23;19922;-81
2023/03/16 12:27:54;;;;;;;3.67;2.00;;;;;;;;;;6066034;23;20499;-84
2023/03/16 12:30:54;;;;;;;3.40;2.22;;;;;;;;;;6065699;23;20094;-84
2023/03/16 12:33:39;;;;;;;3.55;2.20;;;;;;;;;;6061713;23;20027;-84
2023/03/16 12:36:33;;;;;;;4.38;2.17;;;;;;;;;;6089809;23;20026;-83
2023/03/16 12:39:04;;;;;;;5.15;2.30;;;;;;;;;;6085455;23;20029;-83
2023/03/16 12:42:02;;;;;;;2.67;1.77;;;;;;;;;;6087529;23;20056;-83
2023/03/16 12:44:33;;;;;;;3.45;2.40;;;;;;;;;;6084290;23;20371;-83
2023/03/16 12:47:08;;;;;;;2.33;1.90;;;;;;;;;;6091486;23;20050;-82
2023/03/16 12:49:40;;;;;;;2.25;1.80;;;;;;;;;;6089489;23;20027;-79
2023/03/16 12:52:11;;;;;;;2.58;1.90;;;;;;;;;;6066832;23;20030;-83
2023/03/16 12:54:51;;;;;;;2.90;1.85;;;;;;;;;;6082496;23;20508;-79
2023/03/16 12:57:26;;;;;;;3.55;2.15;;;;;;;;;;6082355;23;20057;-82
2023/03/16 12:59:59;;;;;;;2.17;1.90;;;;;;;;;;6070739;23;20023;-82
2023/03/16 13:02:54;;;;;;;3.95;2.05;;;;;;;;;;6068620;23;20086;-82
2023/03/16 13:05:36;;;;;;;3.95;2.17;;;;;;;;;;6067624;23;20023;-81
2023/03/16 13:08:14;;;;;;;4.68;2.80;;;;;;;;;;6069005;23;20038;-82
2023/03/16 13:11:00;;;;;;;3.03;2.22;;;;;;;;;;6068428;23;20062;-81
2023/03/16 13:13:28;;;;;;;2.50;1.60;;;;;;;;;;6066408;23;20117;-81
2023/03/16 13:16:20;;;;;;;2.45;1.83;;;;;;;;;;6069305;23;20082;-81
2023/03/16 13:18:48;;;;;;;2.67;1.80;;;;;;;;;;6065623;23;20033;-81
2023/03/16 13:21:24;;;;;;;4.60;2.80;;;;;;;;;;6068064;23;20097;-82
2023/03/16 13:23:55;;;;;;;3.05;1.70;;;;;;;;;;6067863;23;20078;-81
2023/03/16 13:26:34;;;;;;;2.50;1.90;;;;;;;;;;6069178;23;20059;-81
2023/03/16 13:29:21;;;;;;;4.38;1.88;;;;;;;;;;6064512;23;20086;-82
2023/03/16 13:31:51;;;;;;;3.97;1.80;;;;;;;;;;6086442;23;20038;-81
2023/03/16 13:34:30;;;;;;;3.90;1.70;;;;;;;;;;6065638;23;20053;-81
2023/03/16 13:37:00;;;;;;;3.20;1.98;;;;;;;;;;6066708;23;20079;-81
2023/03/16 13:39:32;;;;;;;3.30;1.90;;;;;;;;;;6066024;23;20018;-81
2023/03/16 13:42:17;;;;;;;3.75;1.60;;;;;;;;;;6067365;23;20029;-82
2023/03/16 13:44:45;;;;;;;3.45;1.75;;;;;;;;;;6065441;23;20481;-81
2023/03/16 13:47:14;;;;;;;3.95;2.05;;;;;;;;;;6069573;23;20023;-82
2023/03/16 13:49:57;;;;;;;3.20;2.20;;;;;;;;;;6069702;23;20022;-82
2023/03/16 13:52:33;;;;;;;2.30;1.77;;;;;;;;;;6069227;23;20023;-81
2023/03/16 13:55:10;;;;;;;2.35;2.00;;;;;;;;;;6093909;23;20023;-81
2023/03/16 13:57:39;;;;;;;3.85;2.25;;;;;;;;;;6068792;23;20027;-82
2023/03/16 14:00:27;;;;;;;3.08;1.80;;;;;;;;;;6069403;23;20027;-81
2023/03/16 14:03:00;;;;;;;4.30;1.92;;;;;;;;;;6067504;23;20029;-81
2023/03/16 14:05:32;;;;;;;3.83;2.00;;;;;;;;;;6068733;23;20474;-82
2023/03/16 14:08:00;;;;;;;2.47;1.65;;;;;;;;;;6068574;23;20109;-82
2023/03/16 14:10:33;;;;;;;2.60;1.80;;;;;;;;;;6044685;23;20030;-80
2023/03/16 14:13:09;;;;;;;3.78;2.25;;;;;;;;;;6069516;23;20157;-83
2023/03/16 14:15:40;;;;;;;3.67;1.85;;;;;;;;;;6065972;23;20034;-83
2023/03/16 14:18:20;;;;;;;2.35;1.83;;;;;;;;;;6068117;23;20023;-85
2023/03/16 14:20:52;;;;;;;2.90;2.03;;;;;;;;;;6067107;23;20070;-83
2023/03/16 14:23:24;;;;;;;3.22;1.83;;;;;;;;;;6069052;23;20365;-82
2023/03/16 14:25:55;;;;;;;2.90;1.90;;;;;;;;;;6069419;23;20023;-84
2023/03/16 14:28:33;;;;;;;2.88;1.75;;;;;;;;;;6069096;23;20029;-84
2023/03/16 14:31:11;;;;;;;2.17;1.80;;;;;;;;;;6066472;23;20474;-76
2023/03/16 14:33:44;;;;;;;4.22;1.98;;;;;;;;;;6027429;23;20086;-75
2023/03/16 14:36:20;;;;;;;3.60;2.03;;;;;;;;;;6060573;23;20379;-75
2023/03/16 14:38:53;;;;;;;3.33;2.10;;;;;;;;;;6038675;23;20030;-75
2023/03/16 14:41:35;;;;;;;3.75;2.28;;;;;;;;;;6038892;23;20448;-76
2023/03/16 14:44:37;;;;;;;3.05;2.40;;;;;;;;;;6061439;23;20034;-75
2023/03/16 14:47:06;;;;;;;2.72;2.00;;;;;;;;;;6080559;23;20492;-75
2023/03/16 14:49:39;;;;;;;3.28;2.38;;;;;;;;;;6057484;23;20082;-76
2023/03/16 14:52:19;;;;;;;3.03;2.30;;;;;;;;;;6064327;23;20069;-83
2023/03/16 14:54:50;;;;;;;3.83;2.88;;;;;;;;;;6089538;23;20022;-82
2023/03/16 14:57:26;;;;;;;3.28;2.40;;;;;;;;;;6065531;23;20019;-84
2023/03/16 14:59:57;;;;;;;5.05;2.67;;;;;;;;;;6066201;23;20030;-82
2023/03/16 15:02:31;;;;;;;4.50;3.03;;;;;;;;;;6066433;23;20049;-83
2023/03/16 15:04:59;;;;;;;5.18;3.00;;;;;;;;;;6066767;23;20031;-84
2023/03/16 15:07:44;;;;;;;4.75;2.88;;;;;;;;;;6067441;23;20027;-83
2023/03/16 15:10:26;;;;;;;4.03;3.15;;;;;;;;;;6067126;23;20122;-84
2023/03/16 15:13:05;;;;;;;3.47;2.70;;;;;;;;;;6069526;23;20033;-86
2023/03/16 15:15:33;;;;;;;3.45;2.75;;;;;;;;;;6070577;23;20075;-83